Malmo, Nebraska
Current Conditions -  °F | °C
As of 11:35 PM on Saturday 22 Nov 2014 (Local Time) from KAHQ Reporting Station
Broken Clouds Broken Clouds  
Wind Chill: 53°   Ceiling: 2500
Heat Index: 53°   Visibility: 10mi
Dew Point: 49°   Wind: 10mph
Humidity: 87%   Direction: 170°S
Pressure: 29.54"   Gusts: NA
Location:  41.27°N, 96.72°W
Report Text: KAHQ 230535Z AUTO 17009KT 10SM BKN025 12/10 A2954 RMK AO2 T01170096
Loading
Personal Weather Stations






























Interactive Weather Map New forecast layout! Learn more

10-Day Weather Forecast

Advertisements
Track Severe Weather on mobile